createdAt,value
2023-03-16T00:00:05.092Z,23.79
2023-03-16T00:02:31.545Z,23.36
2023-03-16T00:04:58.004Z,23.27
2023-03-16T00:07:24.474Z,23.15
2023-03-16T00:09:50.947Z,22.74
2023-03-16T00:12:17.431Z,22.54
2023-03-16T00:14:43.923Z,22.51
2023-03-16T00:17:10.387Z,21.79
2023-03-16T00:19:36.849Z,22.24
2023-03-16T00:22:03.292Z,21.80
2023-03-16T00:24:29.732Z,21.99
2023-03-16T00:26:56.207Z,21.55
2023-03-16T00:29:22.678Z,21.04
2023-03-16T00:31:49.205Z,21.48
2023-03-16T00:34:15.732Z,21.00
2023-03-16T00:36:42.225Z,21.28
2023-03-16T00:39:08.683Z,20.49
2023-03-16T00:41:35.120Z,20.30
2023-03-16T00:44:01.597Z,20.11
2023-03-16T00:46:28.060Z,19.78
2023-03-16T00:48:54.525Z,19.28
2023-03-16T00:51:21.006Z,19.45
2023-03-16T00:53:47.474Z,18.82
2023-03-16T00:56:13.943Z,19.30
2023-03-16T00:58:40.430Z,19.18
2023-03-16T01:01:06.941Z,19.54
2023-03-16T05:06:37.999Z,8.28
2023-03-16T05:09:04.453Z,8.71
2023-03-16T05:11:30.891Z,8.38
2023-03-16T05:13:57.350Z,8.08
2023-03-16T05:16:23.863Z,8.32
2023-03-16T05:18:50.347Z,7.94
2023-03-16T05:21:16.821Z,7.90
2023-03-16T05:23:43.291Z,8.19
2023-03-16T05:26:09.728Z,8.35
2023-03-16T05:28:36.155Z,7.96
2023-03-16T05:31:02.725Z,7.92
2023-03-16T05:33:29.244Z,8.04
2023-03-16T05:35:55.716Z,7.80
2023-03-16T05:38:22.180Z,8.03
2023-03-16T05:40:48.670Z,7.43
2023-03-16T05:43:15.120Z,7.45
2023-03-16T05:45:41.555Z,7.38
2023-03-16T05:48:07.995Z,7.50
2023-03-16T05:50:34.466Z,7.55
2023-03-16T05:53:00.925Z,7.37
2023-03-16T05:55:27.413Z,7.38
2023-03-16T05:57:53.863Z,7.30
2023-03-16T06:00:20.316Z,6.82
2023-03-16T06:02:46.828Z,6.68
2023-03-16T06:05:13.326Z,7.15
2023-03-16T06:07:39.849Z,6.75
2023-03-16T06:10:06.309Z,6.77
2023-03-16T06:12:32.767Z,6.77
2023-03-16T06:14:59.219Z,6.92
2023-03-16T06:17:25.663Z,6.93
2023-03-16T06:19:52.142Z,6.81
2023-03-16T06:22:18.671Z,6.64
2023-03-16T06:24:45.119Z,6.39
2023-03-16T06:27:11.566Z,6.15
2023-03-16T06:29:38.026Z,6.21
2023-03-16T06:32:04.465Z,6.10
2023-03-16T06:34:30.916Z,5.58
2023-03-16T06:36:57.372Z,6.02
2023-03-16T06:39:23.807Z,6.12
2023-03-16T06:41:50.263Z,6.17
2023-03-16T06:44:16.754Z,5.93
2023-03-16T06:46:43.239Z,5.79
2023-03-16T06:49:09.710Z,5.33
2023-03-16T06:51:36.147Z,5.62
2023-03-16T06:54:02.568Z,5.53
2023-03-16T06:56:29.007Z,5.41
2023-03-16T06:58:55.471Z,5.76
2023-03-16T07:01:21.954Z,5.34
2023-03-16T07:03:48.470Z,5.36
2023-03-16T07:06:14.932Z,5.04
2023-03-16T07:08:41.379Z,5.47
2023-03-16T07:11:07.853Z,5.10
2023-03-16T07:13:34.303Z,5.30
2023-03-16T07:16:00.730Z,5.03
2023-03-16T07:18:27.183Z,4.96
2023-03-16T07:20:53.631Z,4.81
2023-03-16T07:23:20.093Z,5.01
2023-03-16T07:25:46.573Z,4.92
2023-03-16T07:28:13.037Z,4.85
2023-03-16T07:30:39.516Z,4.70
2023-03-16T07:33:06.042Z,4.78
2023-03-16T07:35:32.533Z,4.67
2023-03-16T07:37:58.962Z,4.53
2023-03-16T07:40:25.404Z,4.60
2023-03-16T07:42:51.855Z,4.69
2023-03-16T07:45:18.287Z,4.48
2023-03-16T07:47:44.715Z,4.52
2023-03-16T07:50:11.162Z,4.57
2023-03-16T07:52:37.682Z,4.22
2023-03-16T07:55:04.140Z,4.24
2023-03-16T07:57:30.608Z,4.27
2023-03-16T07:59:57.064Z,4.07
2023-03-16T08:02:23.567Z,4.32
2023-03-16T08:04:50.074Z,4.31
2023-03-16T08:07:16.515Z,4.50
2023-03-16T08:09:42.969Z,4.23
2023-03-16T08:12:09.409Z,4.07
2023-03-16T08:14:35.839Z,4.09
2023-03-16T08:17:02.345Z,4.21
2023-03-16T08:19:28.815Z,4.21
2023-03-16T08:22:01.370Z,4.10
2023-03-16T08:24:28.250Z,4.30
2023-03-16T08:26:54.701Z,4.36
2023-03-16T08:29:21.144Z,4.25
2023-03-16T08:31:47.576Z,4.35
2023-03-16T08:34:14.015Z,4.30
2023-03-16T08:36:40.501Z,4.30
2023-03-16T08:39:07.862Z,4.64
2023-03-16T08:41:34.340Z,4.40
2023-03-16T08:44:00.794Z,4.75
2023-03-16T08:46:27.230Z,4.84
2023-03-16T08:48:53.687Z,4.72
2023-03-16T08:51:20.142Z,4.86
2023-03-16T08:53:46.587Z,4.76
2023-03-16T08:56:13.038Z,4.96
2023-03-16T08:58:39.498Z,5.19
2023-03-16T09:01:05.942Z,4.77
2023-03-16T09:03:32.363Z,5.42
2023-03-16T09:05:58.842Z,5.26
2023-03-16T09:08:25.281Z,5.31
2023-03-16T09:10:51.730Z,5.57
2023-03-16T09:13:18.193Z,5.30
2023-03-16T09:15:44.658Z,5.73
2023-03-16T09:18:11.103Z,5.73
2023-03-16T09:20:37.861Z,5.81
2023-03-16T09:23:04.428Z,6.00
2023-03-16T09:25:31.269Z,6.47
2023-03-16T09:27:57.965Z,6.71
2023-03-16T09:30:24.569Z,6.62
2023-03-16T09:32:51.186Z,6.15
2023-03-16T09:35:17.730Z,6.46
2023-03-16T09:38:01.195Z,6.95
2023-03-16T09:40:30.618Z,7.23
2023-03-16T09:42:57.101Z,7.30
2023-03-16T09:45:23.535Z,7.74
2023-03-16T09:47:49.978Z,7.59
2023-03-16T09:50:16.507Z,8.09
2023-03-16T09:52:42.976Z,7.79
2023-03-16T09:55:09.436Z,8.26
2023-03-16T09:57:35.931Z,8.30
2023-03-16T10:00:02.411Z,8.49
2023-03-16T10:02:28.865Z,8.62
2023-03-16T10:04:55.314Z,8.90
2023-03-16T10:07:21.798Z,8.97
2023-03-16T10:09:48.228Z,8.93
2023-03-16T10:12:14.687Z,9.46
2023-03-16T10:14:41.131Z,9.50
2023-03-16T10:17:07.588Z,9.83
2023-03-16T10:19:34.052Z,9.65
2023-03-16T10:22:00.493Z,9.76
2023-03-16T10:24:26.953Z,10.17
2023-03-16T10:26:53.390Z,10.14
2023-03-16T10:29:19.848Z,10.16
2023-03-16T10:31:46.370Z,10.21
2023-03-16T10:34:12.883Z,10.43
2023-03-16T10:36:39.400Z,10.53
2023-03-16T10:39:05.881Z,10.71
2023-03-16T10:41:32.392Z,10.95
2023-03-16T10:43:58.841Z,10.87
2023-03-16T10:46:25.366Z,12.37
2023-03-16T10:48:51.865Z,12.97
2023-03-16T10:51:18.345Z,13.69
2023-03-16T10:53:44.850Z,14.70
2023-03-16T10:56:11.294Z,16.00
2023-03-16T10:58:37.770Z,17.36
2023-03-16T11:01:04.265Z,18.37
2023-03-16T11:03:30.739Z,19.23
2023-03-16T11:05:57.204Z,19.97
2023-03-16T11:08:23.698Z,20.70
2023-03-16T11:10:55.924Z,22.31
2023-03-16T11:13:22.586Z,24.10
2023-03-16T11:15:49.092Z,27.52
2023-03-16T11:18:15.548Z,30.46
2023-03-16T11:20:42.046Z,32.07
2023-03-16T11:23:08.488Z,34.30
2023-03-16T11:25:34.952Z,37.63
2023-03-16T11:28:01.466Z,41.38
2023-03-16T11:30:27.929Z,45.94
2023-03-16T11:32:54.573Z,51.07
2023-03-16T11:35:21.091Z,55.26
2023-03-16T11:37:47.559Z,56.97
2023-03-16T11:40:14.017Z,57.57
2023-03-16T11:42:40.483Z,59.91
2023-03-16T11:45:06.930Z,62.64
2023-03-16T11:47:33.399Z,65.32
2023-03-16T11:49:59.891Z,66.27
2023-03-16T11:52:26.340Z,67.29
2023-03-16T11:54:52.793Z,70.87
2023-03-16T11:57:19.236Z,72.21
2023-03-16T11:59:52.033Z,73.32
2023-03-16T12:02:25.666Z,75.60
2023-03-16T12:04:52.227Z,75.47
2023-03-16T12:07:18.736Z,76.84
2023-03-16T12:09:45.188Z,77.68
2023-03-16T12:12:11.647Z,79.56
2023-03-16T12:14:38.105Z,81.91
2023-03-16T12:17:04.622Z,81.53
2023-03-16T12:19:31.136Z,83.01
2023-03-16T12:21:57.602Z,83.59
2023-03-16T12:24:24.072Z,82.32
2023-03-16T12:26:50.551Z,84.58
2023-03-16T12:29:17.055Z,84.52
2023-03-16T12:31:43.536Z,83.33
2023-03-16T12:34:10.027Z,83.79
2023-03-16T12:36:36.473Z,83.68
2023-03-16T12:39:02.919Z,83.71
2023-03-16T12:41:29.360Z,82.61
2023-03-16T12:43:55.882Z,80.80
2023-03-16T12:46:22.432Z,81.55
2023-03-16T12:48:48.996Z,79.02
2023-03-16T12:51:15.471Z,80.64
2023-03-16T12:53:41.908Z,78.12
2023-03-16T12:56:08.374Z,77.32
2023-03-16T12:58:34.837Z,75.86
2023-03-16T13:01:01.323Z,76.74
2023-03-16T13:03:27.788Z,75.10
2023-03-16T13:05:54.296Z,74.32
2023-03-16T13:08:20.742Z,74.05
2023-03-16T13:10:47.301Z,73.98
2023-03-16T13:13:13.764Z,72.58
2023-03-16T13:15:40.232Z,72.27
2023-03-16T13:18:06.689Z,72.26
2023-03-16T13:20:33.493Z,70.85
2023-03-16T13:23:00.293Z,71.82
2023-03-16T13:25:26.732Z,71.13
2023-03-16T13:27:53.227Z,69.50
2023-03-16T13:30:19.748Z,68.15
2023-03-16T13:32:46.272Z,67.65
2023-03-16T13:35:12.756Z,68.01
2023-03-16T13:37:39.210Z,67.24
2023-03-16T13:40:05.686Z,64.90
2023-03-16T13:42:32.151Z,64.84
2023-03-16T13:44:58.612Z,63.00
2023-03-16T13:47:25.093Z,63.58
2023-03-16T13:49:51.558Z,61.55
2023-03-16T13:52:18.047Z,61.54
2023-03-16T13:54:44.532Z,60.10
2023-03-16T13:57:10.986Z,59.72
2023-03-16T13:59:37.447Z,59.85
2023-03-16T14:02:03.926Z,59.05
2023-03-16T14:04:30.376Z,59.69
2023-03-16T14:06:56.833Z,58.27
2023-03-16T14:09:23.273Z,57.75
2023-03-16T14:11:49.761Z,57.78
2023-03-16T14:14:16.397Z,57.64
2023-03-16T14:16:42.945Z,56.01
2023-03-16T14:19:09.388Z,55.95
2023-03-16T14:21:35.850Z,55.37
2023-03-16T14:24:02.294Z,55.61
2023-03-16T14:26:28.756Z,55.86
2023-03-16T14:28:55.207Z,53.80
2023-03-16T14:31:21.704Z,54.16
2023-03-16T14:33:48.229Z,54.73
2023-03-16T14:36:14.754Z,55.09
2023-03-16T14:38:41.278Z,55.09
2023-03-16T14:41:07.727Z,54.53
2023-03-16T14:43:34.172Z,54.10
2023-03-16T14:46:00.759Z,54.38
2023-03-16T14:48:27.281Z,54.52
2023-03-16T14:50:53.731Z,54.01
2023-03-16T14:53:20.191Z,55.37
2023-03-16T14:55:46.650Z,54.86
2023-03-16T14:58:13.090Z,53.60
2023-03-16T15:00:52.043Z,53.30
2023-03-16T15:03:19.522Z,55.06
2023-03-16T15:05:45.992Z,55.33
2023-03-16T15:08:12.446Z,55.06
2023-03-16T15:10:38.932Z,54.06
2023-03-16T15:13:05.395Z,54.83
2023-03-16T15:15:31.869Z,54.73
2023-03-16T15:17:58.330Z,54.04
2023-03-16T15:20:24.786Z,53.28
2023-03-16T15:22:51.272Z,53.55
2023-03-16T15:25:17.739Z,55.11
2023-03-16T15:27:44.183Z,55.45
2023-03-16T15:30:10.647Z,56.08
2023-03-16T15:32:37.139Z,56.58
2023-03-16T15:35:03.631Z,56.70
2023-03-16T15:37:30.101Z,57.74
2023-03-16T15:39:56.553Z,57.91
2023-03-16T15:42:23.038Z,57.72
2023-03-16T15:44:49.509Z,57.18
2023-03-16T15:47:15.980Z,56.90
2023-03-16T15:49:47.823Z,57.10
2023-03-16T15:52:14.636Z,56.15
2023-03-16T15:54:41.080Z,55.57
2023-03-16T15:57:07.551Z,55.48
2023-03-16T15:59:34.019Z,54.79
2023-03-16T16:02:00.518Z,54.40
2023-03-16T16:04:26.993Z,54.69
2023-03-16T16:06:53.515Z,52.23
2023-03-16T16:09:19.959Z,51.56
2023-03-16T16:11:46.428Z,50.88
2023-03-16T16:14:12.869Z,51.70
2023-03-16T16:16:39.355Z,50.44
2023-03-16T16:19:05.842Z,50.25
2023-03-16T16:21:32.322Z,50.26
2023-03-16T16:23:58.779Z,48.65
2023-03-16T16:26:27.850Z,50.51
2023-03-16T16:28:58.148Z,49.06
2023-03-16T16:31:24.666Z,49.30
2023-03-16T16:33:51.138Z,48.66
2023-03-16T16:36:17.641Z,47.73
2023-03-16T16:38:44.118Z,48.06
2023-03-16T16:41:10.610Z,47.66
2023-03-16T16:43:37.083Z,46.44
2023-03-16T16:46:03.578Z,47.05
2023-03-16T16:48:30.132Z,44.96
2023-03-16T16:50:56.606Z,44.76
2023-03-16T16:53:23.089Z,45.43
2023-03-16T16:55:49.553Z,43.35
2023-03-16T16:58:24.199Z,42.68
2023-03-16T17:00:51.311Z,43.19
2023-03-16T17:03:17.793Z,42.06
2023-03-16T17:05:44.263Z,42.35
2023-03-16T17:08:10.709Z,42.67
2023-03-16T17:10:37.156Z,41.88
2023-03-16T17:13:03.627Z,42.00
2023-03-16T17:15:30.425Z,42.74
2023-03-16T17:17:57.061Z,42.31
2023-03-16T17:20:23.526Z,41.81
2023-03-16T17:22:50.002Z,41.85
2023-03-16T17:25:16.481Z,41.68
2023-03-16T17:27:42.963Z,41.53
2023-03-16T17:30:09.412Z,41.66
2023-03-16T17:32:35.906Z,43.39
2023-03-16T17:35:02.387Z,44.98
2023-03-16T17:37:28.887Z,45.03
2023-03-16T17:39:57.385Z,45.31
2023-03-16T17:42:24.101Z,45.06
2023-03-16T17:44:50.545Z,45.79
2023-03-16T17:47:17.044Z,44.84
2023-03-16T17:49:43.534Z,43.29
2023-03-16T17:52:09.974Z,44.43
2023-03-16T17:54:36.447Z,44.62
2023-03-16T17:57:02.919Z,45.43
2023-03-16T17:59:29.369Z,46.89
2023-03-16T18:01:55.909Z,46.45
2023-03-16T18:04:22.469Z,47.90
2023-03-16T18:06:48.944Z,50.59
2023-03-16T18:09:15.417Z,52.00
2023-03-16T18:11:41.878Z,53.42
2023-03-16T18:14:08.362Z,55.99
2023-03-16T18:16:34.855Z,59.03
2023-03-16T18:19:01.325Z,59.00
2023-03-16T18:21:27.791Z,61.60
2023-03-16T18:23:54.259Z,63.38
2023-03-16T18:26:20.740Z,65.75
2023-03-16T18:28:47.193Z,69.87
2023-03-16T18:31:13.672Z,71.53
2023-03-16T18:33:40.159Z,73.50
2023-03-16T18:36:06.655Z,76.03
2023-03-16T18:38:33.186Z,78.48
2023-03-16T18:40:59.668Z,80.73
2023-03-16T18:43:27.321Z,82.28
2023-03-16T18:45:54.920Z,84.74
2023-03-16T18:48:21.488Z,87.91
2023-03-16T18:50:47.950Z,89.33
2023-03-16T18:53:14.409Z,92.61
2023-03-16T18:55:40.874Z,95.45
2023-03-16T18:58:07.335Z,98.43
2023-03-16T19:00:33.884Z,100.88
2023-03-16T19:03:00.380Z,100.58
2023-03-16T19:05:27.076Z,102.95
2023-03-16T19:07:53.844Z,104.27
2023-03-16T19:10:20.312Z,104.21
2023-03-16T19:12:46.754Z,108.19
2023-03-16T19:15:13.234Z,109.57
2023-03-16T19:17:39.733Z,111.03
2023-03-16T19:20:06.249Z,111.51
2023-03-16T19:22:32.730Z,112.70
2023-03-16T19:24:59.184Z,113.38
2023-03-16T19:27:25.719Z,115.36
2023-03-16T19:29:52.467Z,113.84
2023-03-16T19:32:18.951Z,115.74
2023-03-16T19:34:45.396Z,115.53
2023-03-16T19:37:11.847Z,116.17
2023-03-16T19:39:38.311Z,115.99
2023-03-16T19:42:04.779Z,117.56
2023-03-16T19:44:31.244Z,118.95
2023-03-16T19:46:57.690Z,121.64
2023-03-16T19:49:24.154Z,120.78
2023-03-16T19:51:50.644Z,121.30
2023-03-16T19:54:17.101Z,122.35
2023-03-16T19:56:43.601Z,125.00
2023-03-16T19:59:10.070Z,124.93
2023-03-16T20:01:36.591Z,125.99
2023-03-16T20:04:03.242Z,125.24
2023-03-16T20:06:29.812Z,125.48
2023-03-16T20:08:56.267Z,125.66
2023-03-16T20:11:22.734Z,125.28
2023-03-16T20:13:49.187Z,124.73
2023-03-16T20:16:15.662Z,125.77
2023-03-16T20:18:42.126Z,124.64
2023-03-16T20:21:08.635Z,123.07
2023-03-16T20:23:35.090Z,122.96
2023-03-16T20:26:03.023Z,122.35
2023-03-16T20:28:29.683Z,120.17
2023-03-16T20:30:56.175Z,117.27
2023-03-16T20:33:23.810Z,117.33
2023-03-16T20:35:50.590Z,114.92
2023-03-16T20:38:17.053Z,113.66
2023-03-16T20:40:43.544Z,113.67
2023-03-16T20:43:12.510Z,113.55
2023-03-16T20:45:40.969Z,113.18
2023-03-16T20:48:07.480Z,112.51
2023-03-16T20:50:33.968Z,112.05
2023-03-16T20:53:00.452Z,111.46
2023-03-16T20:55:27.025Z,109.90
2023-03-16T20:57:53.550Z,109.94
2023-03-16T21:00:20.042Z,107.43
2023-03-16T21:02:46.528Z,108.10
2023-03-16T21:05:13.049Z,106.65
2023-03-16T21:07:39.556Z,106.13
2023-03-16T21:10:06.003Z,105.23
2023-03-16T21:12:32.466Z,105.48
2023-03-16T21:14:58.966Z,104.43
2023-03-16T21:17:26.787Z,103.24
2023-03-16T21:19:53.372Z,102.33
2023-03-16T21:22:19.859Z,101.09
2023-03-16T21:24:46.313Z,98.58
2023-03-16T21:27:12.754Z,98.19
2023-03-16T21:29:39.231Z,99.03
2023-03-16T21:32:05.710Z,97.47
2023-03-16T21:34:32.216Z,97.39
2023-03-16T21:36:58.683Z,97.56
2023-03-16T21:39:25.432Z,95.71
2023-03-16T21:41:52.063Z,93.14
2023-03-16T21:44:18.605Z,90.58
2023-03-16T21:46:45.117Z,89.92
2023-03-16T21:49:11.611Z,88.60
2023-03-16T21:51:38.066Z,88.12
2023-03-16T21:54:04.551Z,86.55
2023-03-16T21:56:31.009Z,84.53
2023-03-16T21:58:57.488Z,83.68
2023-03-16T22:01:23.994Z,84.19
2023-03-16T22:03:51.552Z,84.16
2023-03-16T22:06:18.082Z,82.73
2023-03-16T22:08:44.530Z,81.71
2023-03-16T22:11:10.995Z,80.14
2023-03-16T22:13:37.452Z,80.05
2023-03-16T22:16:04.027Z,77.75
2023-03-16T22:18:30.504Z,75.98
2023-03-16T22:20:56.968Z,77.74
2023-03-16T22:23:23.423Z,75.66
2023-03-16T22:25:49.868Z,73.05
2023-03-16T22:28:16.329Z,72.18
2023-03-16T22:30:42.809Z,72.05
2023-03-16T22:33:09.255Z,72.01
2023-03-16T22:35:35.761Z,70.93
2023-03-16T22:38:02.250Z,70.02
2023-03-16T22:40:28.738Z,67.41
2023-03-16T22:42:55.208Z,66.24
2023-03-16T22:45:21.683Z,67.56
2023-03-16T22:47:48.138Z,65.52
2023-03-16T22:50:14.610Z,63.81
2023-03-16T22:52:41.080Z,64.39
2023-03-16T22:55:07.520Z,65.24
2023-03-16T22:57:34.024Z,63.92
2023-03-16T23:00:00.506Z,63.43
2023-03-16T23:02:26.956Z,63.24
2023-03-16T23:04:53.462Z,62.71
2023-03-16T23:07:19.954Z,60.75
2023-03-16T23:09:46.424Z,60.77
2023-03-16T23:12:12.882Z,60.70
2023-03-16T23:14:39.325Z,59.97
2023-03-16T23:17:05.801Z,59.67
2023-03-16T23:19:32.290Z,59.17
2023-03-16T23:21:58.759Z,57.89
2023-03-16T23:24:25.223Z,59.22
2023-03-16T23:26:51.756Z,58.62
2023-03-16T23:29:18.204Z,57.81
2023-03-16T23:31:44.655Z,57.01
2023-03-16T23:34:11.147Z,56.91
2023-03-16T23:36:37.617Z,55.54
2023-03-16T23:39:04.088Z,56.53
2023-03-16T23:41:30.554Z,55.52
2023-03-16T23:43:57.002Z,55.21
2023-03-16T23:46:23.537Z,54.85
2023-03-16T23:48:50.041Z,54.34
2023-03-16T23:51:17.158Z,53.67
2023-03-16T23:53:44.716Z,53.01
2023-03-16T23:56:11.173Z,53.64
2023-03-16T23:58:37.627Z,52.70
